sensor_id;sensor_type;location;lat;lon;timestamp;P1;durP1;ratioP1;P2;durP2;ratioP2
43311;SDS011;30041;48.300;16.352;2024-03-02T00:00:10;2.45;;;1.55;;
43311;SDS011;30041;48.300;16.352;2024-03-02T00:02:46;1.88;;;1.50;;
43311;SDS011;30041;48.300;16.352;2024-03-02T00:05:16;2.03;;;1.40;;
43311;SDS011;30041;48.300;16.352;2024-03-02T00:07:46;1.75;;;1.42;;
43311;SDS011;30041;48.300;16.352;2024-03-02T00:10:52;2.08;;;1.60;;
43311;SDS011;30041;48.300;16.352;2024-03-02T00:13:14;1.70;;;1.40;;
43311;SDS011;30041;48.300;16.352;2024-03-02T00:15:50;1.40;;;1.17;;
43311;SDS011;30041;48.300;16.352;2024-03-02T00:18:19;1.65;;;1.30;;
43311;SDS011;30041;48.300;16.352;2024-03-02T00:20:55;1.63;;;1.25;;
43311;SDS011;30041;48.300;16.352;2024-03-02T00:23:29;1.42;;;1.00;;
43311;SDS011;30041;48.300;16.352;2024-03-02T00:25:57;1.77;;;0.82;;
43311;SDS011;30041;48.300;16.352;2024-03-02T00:28:38;1.40;;;0.85;;
43311;SDS011;30041;48.300;16.352;2024-03-02T00:31:08;0.93;;;0.80;;
43311;SDS011;30041;48.300;16.352;2024-03-02T00:33:41;0.93;;;0.75;;
43311;SDS011;30041;48.300;16.352;2024-03-02T00:36:12;0.73;;;0.70;;
43311;SDS011;30041;48.300;16.352;2024-03-02T00:38:49;0.67;;;0.67;;
43311;SDS011;30041;48.300;16.352;2024-03-02T00:41:29;0.80;;;0.60;;
43311;SDS011;30041;48.300;16.352;2024-03-02T00:46:30;0.98;;;0.70;;
43311;SDS011;30041;48.300;16.352;2024-03-02T00:49:02;1.02;;;0.65;;
43311;SDS011;30041;48.300;16.352;2024-03-02T00:51:32;0.80;;;0.70;;
43311;SDS011;30041;48.300;16.352;2024-03-02T00:54:08;1.23;;;0.70;;
43311;SDS011;30041;48.300;16.352;2024-03-02T00:56:39;0.70;;;0.50;;
43311;SDS011;30041;48.300;16.352;2024-03-02T00:59:10;0.60;;;0.60;;
43311;SDS011;30041;48.300;16.352;2024-03-02T01:01:38;0.50;;;0.50;;
43311;SDS011;30041;48.300;16.352;2024-03-02T01:04:07;0.63;;;0.40;;
43311;SDS011;30041;48.300;16.352;2024-03-02T01:06:42;0.75;;;0.50;;
43311;SDS011;30041;48.300;16.352;2024-03-02T01:09:12;0.40;;;0.40;;
43311;SDS011;30041;48.300;16.352;2024-03-02T01:11:42;0.55;;;0.50;;
43311;SDS011;30041;48.300;16.352;2024-03-02T01:14:10;0.40;;;0.40;;
43311;SDS011;30041;48.300;16.352;2024-03-02T01:16:39;0.40;;;0.40;;
43311;SDS011;30041;48.300;16.352;2024-03-02T01:19:08;0.32;;;0.32;;
43311;SDS011;30041;48.300;16.352;2024-03-02T01:21:40;0.47;;;0.40;;
43311;SDS011;30041;48.300;16.352;2024-03-02T01:24:13;0.30;;;0.30;;
43311;SDS011;30041;48.300;16.352;2024-03-02T01:26:46;0.22;;;0.22;;
43311;SDS011;30041;48.300;16.352;2024-03-02T01:29:20;0.28;;;0.28;;
43311;SDS011;30041;48.300;16.352;2024-03-02T01:31:48;0.30;;;0.30;;
43311;SDS011;30041;48.300;16.352;2024-03-02T01:34:16;0.30;;;0.30;;
43311;SDS011;30041;48.300;16.352;2024-03-02T01:36:45;0.30;;;0.30;;
43311;SDS011;30041;48.300;16.352;2024-03-02T01:39:15;0.80;;;0.35;;
43311;SDS011;30041;48.300;16.352;2024-03-02T01:41:44;0.30;;;0.30;;
43311;SDS011;30041;48.300;16.352;2024-03-02T01:44:17;0.13;;;0.10;;
43311;SDS011;30041;48.300;16.352;2024-03-02T01:46:46;0.20;;;0.20;;
43311;SDS011;30041;48.300;16.352;2024-03-02T01:49:16;0.10;;;0.10;;
43311;SDS011;30041;48.300;16.352;2024-03-02T01:51:49;0.20;;;0.20;;
43311;SDS011;30041;48.300;16.352;2024-03-02T01:54:21;0.20;;;0.10;;
43311;SDS011;30041;48.300;16.352;2024-03-02T01:56:50;0.20;;;0.20;;
43311;SDS011;30041;48.300;16.352;2024-03-02T01:59:24;0.20;;;0.10;;
43311;SDS011;30041;48.300;16.352;2024-03-02T02:01:52;0.30;;;0.30;;
43311;SDS011;30041;48.300;16.352;2024-03-02T02:04:23;0.10;;;0.10;;
43311;SDS011;30041;48.300;16.352;2024-03-02T02:06:55;0.22;;;0.20;;
43311;SDS011;30041;48.300;16.352;2024-03-02T02:09:21;0.17;;;0.10;;
43311;SDS011;30041;48.300;16.352;2024-03-02T02:11:52;0.10;;;0.10;;
43311;SDS011;30041;48.300;16.352;2024-03-02T02:14:22;1.60;;;0.20;;
43311;SDS011;30041;48.300;16.352;2024-03-02T02:16:52;0.40;;;0.10;;
43311;SDS011;30041;48.300;16.352;2024-03-02T02:19:24;0.10;;;0.10;;
43311;SDS011;30041;48.300;16.352;2024-03-02T02:21:51;0.30;;;0.20;;
43311;SDS011;30041;48.300;16.352;2024-03-02T02:24:19;0.10;;;0.10;;
43311;SDS011;30041;48.300;16.352;2024-03-02T02:26:48;0.20;;;0.10;;
43311;SDS011;30041;48.300;16.352;2024-03-02T02:29:15;0.20;;;0.20;;
43311;SDS011;30041;48.300;16.352;2024-03-02T02:31:44;4.18;;;0.20;;
43311;SDS011;30041;48.300;16.352;2024-03-02T02:34:16;0.10;;;0.10;;
43311;SDS011;30041;48.300;16.352;2024-03-02T02:36:43;0.20;;;0.10;;
43311;SDS011;30041;48.300;16.352;2024-03-02T02:39:15;0.10;;;0.10;;
43311;SDS011;30041;48.300;16.352;2024-03-02T02:41:46;0.10;;;0.10;;
43311;SDS011;30041;48.300;16.352;2024-03-02T02:44:17;0.10;;;0.10;;
43311;SDS011;30041;48.300;16.352;2024-03-02T02:46:47;0.17;;;0.10;;
43311;SDS011;30041;48.300;16.352;2024-03-02T02:49:15;0.03;;;0.03;;
43311;SDS011;30041;48.300;16.352;2024-03-02T02:51:43;0.30;;;0.17;;
43311;SDS011;30041;48.300;16.352;2024-03-02T02:54:11;0.00;;;0.00;;
43311;SDS011;30041;48.300;16.352;2024-03-02T02:56:39;0.30;;;0.10;;
43311;SDS011;30041;48.300;16.352;2024-03-02T02:59:08;1.45;;;0.08;;
43311;SDS011;30041;48.300;16.352;2024-03-02T03:01:38;0.25;;;0.10;;
43311;SDS011;30041;48.300;16.352;2024-03-02T03:04:10;0.10;;;0.10;;
43311;SDS011;30041;48.300;16.352;2024-03-02T03:06:40;0.00;;;0.00;;
43311;SDS011;30041;48.300;16.352;2024-03-02T03:09:09;0.10;;;0.10;;
43311;SDS011;30041;48.300;16.352;2024-03-02T03:11:36;0.30;;;0.10;;
43311;SDS011;30041;48.300;16.352;2024-03-02T03:14:04;0.10;;;0.00;;
43311;SDS011;30041;48.300;16.352;2024-03-02T03:16:33;0.08;;;0.08;;
43311;SDS011;30041;48.300;16.352;2024-03-02T03:19:02;0.10;;;0.10;;
43311;SDS011;30041;48.300;16.352;2024-03-02T03:21:33;0.10;;;0.10;;
43311;SDS011;30041;48.300;16.352;2024-03-02T03:24:04;0.17;;;0.10;;
43311;SDS011;30041;48.300;16.352;2024-03-02T03:26:35;0.15;;;0.10;;
43311;SDS011;30041;48.300;16.352;2024-03-02T03:29:03;0.70;;;0.10;;
43311;SDS011;30041;48.300;16.352;2024-03-02T03:31:34;0.00;;;0.00;;
43311;SDS011;30041;48.300;16.352;2024-03-02T03:34:04;0.20;;;0.10;;
43311;SDS011;30041;48.300;16.352;2024-03-02T03:36:36;0.22;;;0.10;;
43311;SDS011;30041;48.300;16.352;2024-03-02T03:39:05;0.13;;;0.10;;
43311;SDS011;30041;48.300;16.352;2024-03-02T03:41:34;0.03;;;0.00;;
43311;SDS011;30041;48.300;16.352;2024-03-02T03:44:04;0.08;;;0.00;;
43311;SDS011;30041;48.300;16.352;2024-03-02T03:46:34;0.10;;;0.10;;
43311;SDS011;30041;48.300;16.352;2024-03-02T03:49:04;0.85;;;0.10;;
43311;SDS011;30041;48.300;16.352;2024-03-02T03:51:34;0.20;;;0.17;;
43311;SDS011;30041;48.300;16.352;2024-03-02T03:54:02;0.15;;;0.10;;
43311;SDS011;30041;48.300;16.352;2024-03-02T03:56:33;0.00;;;0.00;;
43311;SDS011;30041;48.300;16.352;2024-03-02T03:59:03;0.10;;;0.10;;
43311;SDS011;30041;48.300;16.352;2024-03-02T04:01:33;0.00;;;0.00;;
43311;SDS011;30041;48.300;16.352;2024-03-02T04:04:04;0.10;;;0.03;;
43311;SDS011;30041;48.300;16.352;2024-03-02T04:06:33;0.10;;;0.00;;
43311;SDS011;30041;48.300;16.352;2024-03-02T04:09:00;0.08;;;0.08;;
43311;SDS011;30041;48.300;16.352;2024-03-02T04:11:28;0.30;;;0.00;;
43311;SDS011;30041;48.300;16.352;2024-03-02T04:14:00;0.10;;;0.10;;
43311;SDS011;30041;48.300;16.352;2024-03-02T04:16:37;0.03;;;0.03;;
43311;SDS011;30041;48.300;16.352;2024-03-02T04:19:04;0.25;;;0.10;;
43311;SDS011;30041;48.300;16.352;2024-03-02T04:21:32;0.10;;;0.08;;
43311;SDS011;30041;48.300;16.352;2024-03-02T04:24:00;0.10;;;0.03;;
43311;SDS011;30041;48.300;16.352;2024-03-02T04:26:28;0.00;;;0.00;;
43311;SDS011;30041;48.300;16.352;2024-03-02T04:28:57;0.13;;;0.10;;
43311;SDS011;30041;48.300;16.352;2024-03-02T04:31:26;0.00;;;0.00;;
43311;SDS011;30041;48.300;16.352;2024-03-02T04:33:56;0.00;;;0.00;;
43311;SDS011;30041;48.300;16.352;2024-03-02T04:36:28;0.00;;;0.00;;
43311;SDS011;30041;48.300;16.352;2024-03-02T04:39:06;0.03;;;0.03;;
43311;SDS011;30041;48.300;16.352;2024-03-02T04:41:38;0.00;;;0.00;;
43311;SDS011;30041;48.300;16.352;2024-03-02T04:44:06;0.10;;;0.10;;
43311;SDS011;30041;48.300;16.352;2024-03-02T04:46:36;0.10;;;0.10;;
43311;SDS011;30041;48.300;16.352;2024-03-02T04:49:04;0.00;;;0.00;;
43311;SDS011;30041;48.300;16.352;2024-03-02T04:51:32;0.10;;;0.00;;
43311;SDS011;30041;48.300;16.352;2024-03-02T04:54:02;0.00;;;0.00;;
43311;SDS011;30041;48.300;16.352;2024-03-02T04:56:31;0.00;;;0.00;;
43311;SDS011;30041;48.300;16.352;2024-03-02T04:59:08;0.00;;;0.00;;
43311;SDS011;30041;48.300;16.352;2024-03-02T05:01:37;0.00;;;0.00;;
43311;SDS011;30041;48.300;16.352;2024-03-02T05:04:06;0.00;;;0.00;;
43311;SDS011;30041;48.300;16.352;2024-03-02T05:06:38;0.00;;;0.00;;
43311;SDS011;30041;48.300;16.352;2024-03-02T05:09:08;0.00;;;0.00;;
43311;SDS011;30041;48.300;16.352;2024-03-02T05:11:36;0.03;;;0.00;;
43311;SDS011;30041;48.300;16.352;2024-03-02T05:14:12;0.00;;;0.00;;
43311;SDS011;30041;48.300;16.352;2024-03-02T05:16:43;0.00;;;0.00;;
43311;SDS011;30041;48.300;16.352;2024-03-02T05:19:09;0.00;;;0.00;;
43311;SDS011;30041;48.300;16.352;2024-03-02T05:21:39;0.00;;;0.00;;
43311;SDS011;30041;48.300;16.352;2024-03-02T05:24:07;0.00;;;0.00;;
43311;SDS011;30041;48.300;16.352;2024-03-02T05:26:37;0.00;;;0.00;;
43311;SDS011;30041;48.300;16.352;2024-03-02T05:29:09;0.00;;;0.00;;
43311;SDS011;30041;48.300;16.352;2024-03-02T05:31:37;0.10;;;0.10;;
43311;SDS011;30041;48.300;16.352;2024-03-02T05:34:08;0.00;;;0.00;;
43311;SDS011;30041;48.300;16.352;2024-03-02T05:36:39;0.00;;;0.00;;
43311;SDS011;30041;48.300;16.352;2024-03-02T05:39:08;0.10;;;0.00;;
43311;SDS011;30041;48.300;16.352;2024-03-02T05:41:37;0.10;;;0.10;;
43311;SDS011;30041;48.300;16.352;2024-03-02T05:44:06;0.00;;;0.00;;
43311;SDS011;30041;48.300;16.352;2024-03-02T05:46:39;0.35;;;0.00;;
43311;SDS011;30041;48.300;16.352;2024-03-02T05:49:08;0.00;;;0.00;;
43311;SDS011;30041;48.300;16.352;2024-03-02T05:51:45;0.00;;;0.00;;
43311;SDS011;30041;48.300;16.352;2024-03-02T05:54:15;0.00;;;0.00;;
43311;SDS011;30041;48.300;16.352;2024-03-02T05:56:43;0.00;;;0.00;;
43311;SDS011;30041;48.300;16.352;2024-03-02T05:59:14;0.00;;;0.00;;
43311;SDS011;30041;48.300;16.352;2024-03-02T06:01:43;0.00;;;0.00;;
43311;SDS011;30041;48.300;16.352;2024-03-02T06:04:12;0.00;;;0.00;;
43311;SDS011;30041;48.300;16.352;2024-03-02T06:06:42;0.00;;;0.00;;
43311;SDS011;30041;48.300;16.352;2024-03-02T06:09:12;0.00;;;0.00;;
43311;SDS011;30041;48.300;16.352;2024-03-02T06:11:40;0.00;;;0.00;;
43311;SDS011;30041;48.300;16.352;2024-03-02T06:14:11;0.30;;;0.10;;
43311;SDS011;30041;48.300;16.352;2024-03-02T06:16:41;0.00;;;0.00;;
43311;SDS011;30041;48.300;16.352;2024-03-02T06:19:10;0.00;;;0.00;;
43311;SDS011;30041;48.300;16.352;2024-03-02T06:21:38;0.05;;;0.05;;
43311;SDS011;30041;48.300;16.352;2024-03-02T06:24:07;0.00;;;0.00;;
43311;SDS011;30041;48.300;16.352;2024-03-02T06:26:36;0.32;;;0.10;;
43311;SDS011;30041;48.300;16.352;2024-03-02T06:29:09;0.05;;;0.05;;
43311;SDS011;30041;48.300;16.352;2024-03-02T06:31:40;0.03;;;0.00;;
43311;SDS011;30041;48.300;16.352;2024-03-02T06:34:10;0.00;;;0.00;;
43311;SDS011;30041;48.300;16.352;2024-03-02T06:36:44;0.17;;;0.10;;
43311;SDS011;30041;48.300;16.352;2024-03-02T06:39:15;0.15;;;0.13;;
43311;SDS011;30041;48.300;16.352;2024-03-02T06:41:47;0.50;;;0.10;;
43311;SDS011;30041;48.300;16.352;2024-03-02T06:44:17;0.00;;;0.00;;
43311;SDS011;30041;48.300;16.352;2024-03-02T06:46:45;0.00;;;0.00;;
43311;SDS011;30041;48.300;16.352;2024-03-02T06:49:14;0.28;;;0.17;;
43311;SDS011;30041;48.300;16.352;2024-03-02T06:51:46;0.17;;;0.17;;
43311;SDS011;30041;48.300;16.352;2024-03-02T06:54:16;0.10;;;0.10;;
43311;SDS011;30041;48.300;16.352;2024-03-02T06:56:51;0.08;;;0.08;;
43311;SDS011;30041;48.300;16.352;2024-03-02T06:59:19;0.03;;;0.03;;
43311;SDS011;30041;48.300;16.352;2024-03-02T07:01:49;0.00;;;0.00;;
43311;SDS011;30041;48.300;16.352;2024-03-02T07:04:17;1.42;;;0.10;;
43311;SDS011;30041;48.300;16.352;2024-03-02T07:06:45;0.10;;;0.10;;
43311;SDS011;30041;48.300;16.352;2024-03-02T07:09:15;0.10;;;0.10;;
43311;SDS011;30041;48.300;16.352;2024-03-02T07:11:52;0.15;;;0.13;;
43311;SDS011;30041;48.300;16.352;2024-03-02T07:14:23;0.10;;;0.10;;
43311;SDS011;30041;48.300;16.352;2024-03-02T07:16:53;0.10;;;0.10;;
43311;SDS011;30041;48.300;16.352;2024-03-02T07:19:21;0.30;;;0.28;;
43311;SDS011;30041;48.300;16.352;2024-03-02T07:21:51;0.17;;;0.15;;
43311;SDS011;30041;48.300;16.352;2024-03-02T07:24:20;0.13;;;0.10;;
43311;SDS011;30041;48.300;16.352;2024-03-02T07:26:56;0.10;;;0.10;;
43311;SDS011;30041;48.300;16.352;2024-03-02T07:29:25;0.25;;;0.15;;
43311;SDS011;30041;48.300;16.352;2024-03-02T07:31:56;0.20;;;0.20;;
43311;SDS011;30041;48.300;16.352;2024-03-02T07:34:24;0.15;;;0.10;;
43311;SDS011;30041;48.300;16.352;2024-03-02T07:36:59;0.32;;;0.15;;
43311;SDS011;30041;48.300;16.352;2024-03-02T07:39:27;0.17;;;0.13;;
43311;SDS011;30041;48.300;16.352;2024-03-02T07:41:59;0.28;;;0.20;;
43311;SDS011;30041;48.300;16.352;2024-03-02T07:44:28;0.10;;;0.10;;
43311;SDS011;30041;48.300;16.352;2024-03-02T07:46:56;0.10;;;0.10;;
43311;SDS011;30041;48.300;16.352;2024-03-02T07:49:28;0.20;;;0.20;;
43311;SDS011;30041;48.300;16.352;2024-03-02T07:52:00;0.20;;;0.15;;
43311;SDS011;30041;48.300;16.352;2024-03-02T07:54:28;0.15;;;0.15;;
43311;SDS011;30041;48.300;16.352;2024-03-02T07:57:01;0.32;;;0.30;;
43311;SDS011;30041;48.300;16.352;2024-03-02T07:59:31;0.20;;;0.20;;
43311;SDS011;30041;48.300;16.352;2024-03-02T08:02:01;0.25;;;0.20;;
43311;SDS011;30041;48.300;16.352;2024-03-02T08:04:37;0.20;;;0.20;;
43311;SDS011;30041;48.300;16.352;2024-03-02T08:07:07;0.22;;;0.20;;
43311;SDS011;30041;48.300;16.352;2024-03-02T08:09:42;0.60;;;0.40;;
43311;SDS011;30041;48.300;16.352;2024-03-02T08:12:10;0.38;;;0.28;;
43311;SDS011;30041;48.300;16.352;2024-03-02T08:14:38;0.52;;;0.40;;
43311;SDS011;30041;48.300;16.352;2024-03-02T08:17:05;0.50;;;0.30;;
43311;SDS011;30041;48.300;16.352;2024-03-02T08:19:37;0.28;;;0.28;;
43311;SDS011;30041;48.300;16.352;2024-03-02T08:22:08;0.50;;;0.40;;
43311;SDS011;30041;48.300;16.352;2024-03-02T08:24:36;0.30;;;0.30;;
43311;SDS011;30041;48.300;16.352;2024-03-02T08:27:06;0.50;;;0.40;;
43311;SDS011;30041;48.300;16.352;2024-03-02T08:29:35;0.40;;;0.35;;
43311;SDS011;30041;48.300;16.352;2024-03-02T08:32:01;0.30;;;0.20;;
43311;SDS011;30041;48.300;16.352;2024-03-02T08:34:44;0.30;;;0.30;;
43311;SDS011;30041;48.300;16.352;2024-03-02T08:37:13;0.30;;;0.22;;
43311;SDS011;30041;48.300;16.352;2024-03-02T08:39:44;0.50;;;0.35;;
43311;SDS011;30041;48.300;16.352;2024-03-02T08:42:17;0.60;;;0.45;;
43311;SDS011;30041;48.300;16.352;2024-03-02T08:44:47;0.22;;;0.22;;
43311;SDS011;30041;48.300;16.352;2024-03-02T08:47:16;0.52;;;0.38;;
43311;SDS011;30041;48.300;16.352;2024-03-02T08:49:45;0.30;;;0.30;;
43311;SDS011;30041;48.300;16.352;2024-03-02T08:52:21;0.38;;;0.30;;
43311;SDS011;30041;48.300;16.352;2024-03-02T08:54:50;0.47;;;0.35;;
43311;SDS011;30041;48.300;16.352;2024-03-02T08:57:19;0.60;;;0.40;;
43311;SDS011;30041;48.300;16.352;2024-03-02T08:59:48;0.47;;;0.30;;
43311;SDS011;30041;48.300;16.352;2024-03-02T09:02:17;0.50;;;0.40;;
43311;SDS011;30041;48.300;16.352;2024-03-02T09:04:44;0.40;;;0.38;;
43311;SDS011;30041;48.300;16.352;2024-03-02T09:07:12;0.60;;;0.52;;
43311;SDS011;30041;48.300;16.352;2024-03-02T09:09:39;0.75;;;0.47;;
43311;SDS011;30041;48.300;16.352;2024-03-02T09:12:17;0.68;;;0.50;;
43311;SDS011;30041;48.300;16.352;2024-03-02T09:14:45;0.38;;;0.30;;
43311;SDS011;30041;48.300;16.352;2024-03-02T09:17:13;0.40;;;0.32;;
43311;SDS011;30041;48.300;16.352;2024-03-02T09:19:43;0.50;;;0.40;;
43311;SDS011;30041;48.300;16.352;2024-03-02T09:22:09;0.30;;;0.30;;
43311;SDS011;30041;48.300;16.352;2024-03-02T09:24:39;0.68;;;0.43;;
43311;SDS011;30041;48.300;16.352;2024-03-02T09:27:08;0.90;;;0.60;;
43311;SDS011;30041;48.300;16.352;2024-03-02T09:29:37;0.60;;;0.40;;
43311;SDS011;30041;48.300;16.352;2024-03-02T09:32:13;0.70;;;0.57;;
43311;SDS011;30041;48.300;16.352;2024-03-02T09:34:45;16.00;;;10.33;;
43311;SDS011;30041;48.300;16.352;2024-03-02T09:37:13;16.08;;;11.98;;
43311;SDS011;30041;48.300;16.352;2024-03-02T09:39:43;15.15;;;12.10;;
43311;SDS011;30041;48.300;16.352;2024-03-02T09:42:18;20.73;;;14.93;;
43311;SDS011;30041;48.300;16.352;2024-03-02T09:44:48;16.73;;;14.10;;
43311;SDS011;30041;48.300;16.352;2024-03-02T09:47:19;14.55;;;11.57;;
43311;SDS011;30041;48.300;16.352;2024-03-02T09:49:49;17.48;;;10.77;;
43311;SDS011;30041;48.300;16.352;2024-03-02T09:52:19;19.88;;;11.60;;
43311;SDS011;30041;48.300;16.352;2024-03-02T09:54:49;16.98;;;10.65;;
43311;SDS011;30041;48.300;16.352;2024-03-02T09:57:16;13.50;;;10.63;;
43311;SDS011;30041;48.300;16.352;2024-03-02T09:59:44;15.57;;;10.70;;
43311;SDS011;30041;48.300;16.352;2024-03-02T10:02:15;14.40;;;10.05;;
43311;SDS011;30041;48.300;16.352;2024-03-02T10:04:49;13.90;;;10.13;;
43311;SDS011;30041;48.300;16.352;2024-03-02T10:07:18;13.13;;;10.07;;
43311;SDS011;30041;48.300;16.352;2024-03-02T10:09:47;12.07;;;9.68;;
43311;SDS011;30041;48.300;16.352;2024-03-02T10:12:16;12.13;;;10.10;;
43311;SDS011;30041;48.300;16.352;2024-03-02T10:14:49;14.68;;;10.10;;
43311;SDS011;30041;48.300;16.352;2024-03-02T10:17:32;11.10;;;8.88;;
43311;SDS011;30041;48.300;16.352;2024-03-02T10:20:20;13.65;;;9.48;;
43311;SDS011;30041;48.300;16.352;2024-03-02T10:25:31;12.00;;;9.48;;
43311;SDS011;30041;48.300;16.352;2024-03-02T10:28:01;12.48;;;9.40;;
43311;SDS011;30041;48.300;16.352;2024-03-02T10:30:30;14.48;;;9.88;;
43311;SDS011;30041;48.300;16.352;2024-03-02T10:32:59;11.80;;;9.40;;
43311;SDS011;30041;48.300;16.352;2024-03-02T10:35:34;11.73;;;9.10;;
43311;SDS011;30041;48.300;16.352;2024-03-02T10:38:07;12.57;;;9.52;;
43311;SDS011;30041;48.300;16.352;2024-03-02T10:40:39;12.93;;;9.18;;
43311;SDS011;30041;48.300;16.352;2024-03-02T10:43:16;13.40;;;9.35;;
43311;SDS011;30041;48.300;16.352;2024-03-02T10:45:47;11.38;;;9.30;;
43311;SDS011;30041;48.300;16.352;2024-03-02T10:48:20;12.80;;;9.15;;
43311;SDS011;30041;48.300;16.352;2024-03-02T10:50:48;12.60;;;9.02;;
43311;SDS011;30041;48.300;16.352;2024-03-02T10:53:19;15.32;;;11.05;;
43311;SDS011;30041;48.300;16.352;2024-03-02T10:55:53;13.18;;;11.05;;
43311;SDS011;30041;48.300;16.352;2024-03-02T10:58:25;11.13;;;9.80;;
43311;SDS011;30041;48.300;16.352;2024-03-02T11:00:58;11.65;;;10.07;;
43311;SDS011;30041;48.300;16.352;2024-03-02T11:03:33;11.13;;;9.25;;
43311;SDS011;30041;48.300;16.352;2024-03-02T11:06:09;10.73;;;9.30;;
43311;SDS011;30041;48.300;16.352;2024-03-02T11:08:43;11.35;;;10.10;;
43311;SDS011;30041;48.300;16.352;2024-03-02T11:11:18;12.88;;;9.68;;
43311;SDS011;30041;48.300;16.352;2024-03-02T11:13:55;12.10;;;10.13;;
43311;SDS011;30041;48.300;16.352;2024-03-02T11:16:42;11.30;;;9.32;;
43311;SDS011;30041;48.300;16.352;2024-03-02T11:19:16;13.07;;;10.05;;
43311;SDS011;30041;48.300;16.352;2024-03-02T11:21:46;11.43;;;9.43;;
43311;SDS011;30041;48.300;16.352;2024-03-02T11:27:00;12.65;;;10.45;;
43311;SDS011;30041;48.300;16.352;2024-03-02T11:32:15;11.63;;;10.40;;
43311;SDS011;30041;48.300;16.352;2024-03-02T11:34:48;12.90;;;10.60;;
43311;SDS011;30041;48.300;16.352;2024-03-02T11:37:20;14.02;;;10.85;;
43311;SDS011;30041;48.300;16.352;2024-03-02T11:39:49;12.13;;;10.35;;
43311;SDS011;30041;48.300;16.352;2024-03-02T11:42:22;20.63;;;11.65;;
43311;SDS011;30041;48.300;16.352;2024-03-02T11:44:55;13.82;;;10.27;;
43311;SDS011;30041;48.300;16.352;2024-03-02T11:47:24;13.20;;;10.18;;
43311;SDS011;30041;48.300;16.352;2024-03-02T11:50:00;13.27;;;10.40;;
43311;SDS011;30041;48.300;16.352;2024-03-02T11:52:31;13.48;;;10.65;;
43311;SDS011;30041;48.300;16.352;2024-03-02T11:55:04;13.95;;;10.77;;
43311;SDS011;30041;48.300;16.352;2024-03-02T11:57:34;16.88;;;10.25;;
43311;SDS011;30041;48.300;16.352;2024-03-02T12:00:04;12.98;;;10.48;;
43311;SDS011;30041;48.300;16.352;2024-03-02T12:03:11;13.13;;;10.55;;
43311;SDS011;30041;48.300;16.352;2024-03-02T12:05:45;11.75;;;10.48;;
43311;SDS011;30041;48.300;16.352;2024-03-02T12:08:16;13.30;;;10.23;;
43311;SDS011;30041;48.300;16.352;2024-03-02T12:10:56;13.68;;;11.00;;
43311;SDS011;30041;48.300;16.352;2024-03-02T12:13:35;14.00;;;11.02;;
43311;SDS011;30041;48.300;16.352;2024-03-02T12:16:06;13.30;;;11.30;;
43311;SDS011;30041;48.300;16.352;2024-03-02T12:18:38;14.05;;;10.25;;
43311;SDS011;30041;48.300;16.352;2024-03-02T12:21:09;12.93;;;9.85;;
43311;SDS011;30041;48.300;16.352;2024-03-02T12:23:40;11.90;;;10.63;;
43311;SDS011;30041;48.300;16.352;2024-03-02T12:26:15;14.88;;;10.43;;
43311;SDS011;30041;48.300;16.352;2024-03-02T12:28:46;14.30;;;10.38;;
43311;SDS011;30041;48.300;16.352;2024-03-02T12:31:13;14.27;;;10.73;;
43311;SDS011;30041;48.300;16.352;2024-03-02T12:33:48;11.85;;;10.40;;
43311;SDS011;30041;48.300;16.352;2024-03-02T12:36:17;19.95;;;11.27;;
43311;SDS011;30041;48.300;16.352;2024-03-02T12:38:48;18.05;;;11.48;;
43311;SDS011;30041;48.300;16.352;2024-03-02T12:41:22;14.90;;;11.18;;
43311;SDS011;30041;48.300;16.352;2024-03-02T12:43:51;14.93;;;11.45;;
43311;SDS011;30041;48.300;16.352;2024-03-02T12:46:23;16.30;;;12.10;;
43311;SDS011;30041;48.300;16.352;2024-03-02T12:49:08;18.23;;;11.70;;
43311;SDS011;30041;48.300;16.352;2024-03-02T12:51:39;17.08;;;12.30;;
43311;SDS011;30041;48.300;16.352;2024-03-02T12:54:12;23.70;;;13.00;;
43311;SDS011;30041;48.300;16.352;2024-03-02T12:56:47;18.50;;;13.68;;
43311;SDS011;30041;48.300;16.352;2024-03-02T12:59:20;17.60;;;13.75;;
43311;SDS011;30041;48.300;16.352;2024-03-02T13:02:00;19.95;;;13.80;;
43311;SDS011;30041;48.300;16.352;2024-03-02T13:04:29;18.95;;;13.73;;
43311;SDS011;30041;48.300;16.352;2024-03-02T13:07:05;16.15;;;13.15;;
43311;SDS011;30041;48.300;16.352;2024-03-02T13:09:34;16.10;;;12.70;;
43311;SDS011;30041;48.300;16.352;2024-03-02T13:12:06;16.30;;;13.80;;
43311;SDS011;30041;48.300;16.352;2024-03-02T13:14:35;16.73;;;13.45;;
43311;SDS011;30041;48.300;16.352;2024-03-02T13:17:14;16.17;;;13.48;;
43311;SDS011;30041;48.300;16.352;2024-03-02T13:19:59;17.40;;;13.65;;
43311;SDS011;30041;48.300;16.352;2024-03-02T13:22:33;16.30;;;13.80;;
43311;SDS011;30041;48.300;16.352;2024-03-02T13:25:03;17.75;;;13.85;;
43311;SDS011;30041;48.300;16.352;2024-03-02T13:27:32;17.02;;;14.18;;
43311;SDS011;30041;48.300;16.352;2024-03-02T13:30:05;17.95;;;14.38;;
43311;SDS011;30041;48.300;16.352;2024-03-02T13:32:35;15.60;;;14.00;;
43311;SDS011;30041;48.300;16.352;2024-03-02T13:35:06;16.65;;;14.70;;
43311;SDS011;30041;48.300;16.352;2024-03-02T13:37:37;17.15;;;14.70;;
43311;SDS011;30041;48.300;16.352;2024-03-02T13:40:09;17.65;;;14.65;;
43311;SDS011;30041;48.300;16.352;2024-03-02T13:42:43;17.27;;;14.25;;
43311;SDS011;30041;48.300;16.352;2024-03-02T13:45:19;18.35;;;13.95;;
43311;SDS011;30041;48.300;16.352;2024-03-02T13:47:50;16.80;;;14.18;;
43311;SDS011;30041;48.300;16.352;2024-03-02T13:50:22;18.55;;;13.95;;
43311;SDS011;30041;48.300;16.352;2024-03-02T13:52:51;16.65;;;13.68;;
43311;SDS011;30041;48.300;16.352;2024-03-02T13:55:20;17.90;;;14.10;;
43311;SDS011;30041;48.300;16.352;2024-03-02T13:57:55;15.38;;;13.73;;
43311;SDS011;30041;48.300;16.352;2024-03-02T14:00:27;15.50;;;13.63;;
43311;SDS011;30041;48.300;16.352;2024-03-02T14:03:00;16.83;;;14.10;;
43311;SDS011;30041;48.300;16.352;2024-03-02T14:05:29;14.73;;;13.23;;
43311;SDS011;30041;48.300;16.352;2024-03-02T14:07:58;15.20;;;13.13;;
43311;SDS011;30041;48.300;16.352;2024-03-02T14:10:27;16.40;;;14.70;;
43311;SDS011;30041;48.300;16.352;2024-03-02T14:13:00;15.95;;;13.60;;
43311;SDS011;30041;48.300;16.352;2024-03-02T14:15:32;19.13;;;15.25;;
43311;SDS011;30041;48.300;16.352;2024-03-02T14:18:01;24.58;;;15.15;;
43311;SDS011;30041;48.300;16.352;2024-03-02T14:20:29;19.75;;;13.93;;
43311;SDS011;30041;48.300;16.352;2024-03-02T14:23:01;16.88;;;13.48;;
43311;SDS011;30041;48.300;16.352;2024-03-02T14:25:32;33.15;;;14.52;;
43311;SDS011;30041;48.300;16.352;2024-03-02T14:28:01;18.15;;;13.30;;
43311;SDS011;30041;48.300;16.352;2024-03-02T14:30:31;20.38;;;13.45;;
43311;SDS011;30041;48.300;16.352;2024-03-02T14:33:01;18.73;;;12.85;;
43311;SDS011;30041;48.300;16.352;2024-03-02T14:35:32;15.57;;;12.20;;
43311;SDS011;30041;48.300;16.352;2024-03-02T14:38:07;17.50;;;12.50;;
43311;SDS011;30041;48.300;16.352;2024-03-02T14:40:46;21.98;;;12.75;;
43311;SDS011;30041;48.300;16.352;2024-03-02T14:43:14;22.80;;;13.00;;
43311;SDS011;30041;48.300;16.352;2024-03-02T14:46:06;21.73;;;12.77;;
43311;SDS011;30041;48.300;16.352;2024-03-02T14:48:45;22.33;;;13.05;;
43311;SDS011;30041;48.300;16.352;2024-03-02T14:51:15;33.15;;;14.00;;
43311;SDS011;30041;48.300;16.352;2024-03-02T14:53:43;18.98;;;14.13;;
43311;SDS011;30041;48.300;16.352;2024-03-02T14:56:23;23.20;;;13.70;;
43311;SDS011;30041;48.300;16.352;2024-03-02T14:58:51;19.88;;;12.85;;